Aleknagik, AK

6:09 AM AKDT on April 19, 2015 (GMT -0800)
Dillingham | | Change Station
CLOSE
Current Station
Airport
Location: Dillingham,
Elevation: 95 ft
Nearby Weather Stations

Elev 95 ft 59.04 °N, 158.51 °W | Updated 13 minutes ago

Overcast
Overcast
36 °F
Feels Like 30 °F
N
7
Wind Variable Wind from ENE

Today
High -- | Low -- °F
--% Chance of Precip.
Yesterday
High -- | Low -- °F
Precip. -- in
7:08 AM 10:00 PM
New Moon, 1% visible
Pressure 29.09 in
Visibility 10.0 miles
Clouds Scattered Clouds 3200 ft
Mostly Cloudy 5000 ft
Overcast 6500 ft
Windchill 30 °F
Dew Point 34 °F
Humidity 93%
Rainfall 0.00 in
Snow Depth Not available.
UV 0 out of 12
Pollen Not available.
Air Quality Not available.
Flu Activity Sporadic
METAR PADL 191356Z 07006KT 10SM SCT032 BKN050 OVC065 02/01 A2909 RMK AO1

More Conditions Fewer Conditions

Pressure 29.09 in
Visibility 10.0 miles
Clouds Scattered Clouds 3200 ft
Mostly Cloudy 5000 ft
Overcast 6500 ft
Windchill 30 °F
Dew Point 34 °F
Humidity 93%
Rainfall 0.00 in
Snow Depth Not available.
UV 0 out of 12
Pollen Not available.
Air Quality Not available.
Flu Activity Sporadic
METAR PADL 191356Z 07006KT 10SM SCT032 BKN050 OVC065 02/01 A2909 RMK AO1

More Conditions Fewer Conditions

10-Day Weather Forecast

Almanac

Astronomy

Apr. 19, 2015 Rise Set
Actual Time
Civil Twilight
Nautical Twilight
Astronomical Twilight
Moon
Length of Visible Light
Length of Day
Tomorrow will be .
, % of the Moon is Illuminated

Today's Extremes

State Highs State Lows

Community

WunderPhotos

Upload Photos

1,814,800 photos uploaded!

WunderBlogs® & News

Nearby

Air Quality

  Air Quality AQ Index Pollutant
Not available.

Snow Depth

Station Depth Elevation

Earthquake Activity

City Distance Mag. Time & Date
Minimum magnitude displayed is 2.5.

Coastal Water Temperatures

Place Temperature

Stations

Nearby Weather Stations

Station Location Temp. Windchill Dew Point Humidity Wind Precip. Elev Updated Type